Time;durP1;ratioP1;P1;durP2;ratioP2;P2;SDS_P1;SDS_P2;PMS_P1;PMS_P2;Temp;Humidity;BMP_temperature;BMP_pressure;BME280_temperature;BME280_humidity;BME280_pressure;Samples;Min_cycle;Max_cycle;Signal;HPM_P1;HPM_P2
2023/01/27 00:01:35;;;;;;;;;5.00;5.00;;;;;8.21;100.00;101699.69;5025365;28;45760;-86
2023/01/27 00:04:00;;;;;;;;;4.33;4.33;;;;;8.21;100.00;101702.31;5043880;28;45691;-86
2023/01/27 00:06:25;;;;;;;;;6.00;2.67;;;;;8.13;100.00;101685.22;5026452;28;47887;-86
2023/01/27 00:08:50;;;;;;;;;3.00;3.00;;;;;8.16;100.00;101698.59;5043616;28;45272;-85
2023/01/27 00:14:00;;;;;;;;;6.00;6.00;;;;;8.17;100.00;101705.69;5039982;28;45409;-86
2023/01/27 00:16:26;;;;;;;;;7.00;5.00;;;;;8.13;100.00;101695.81;5024648;28;46953;-85
2023/01/27 00:18:51;;;;;;;;;7.67;6.00;;;;;8.10;100.00;101708.97;5023710;28;45649;-85
2023/01/27 00:26:44;;;;;;;;;3.00;3.00;;;;;8.01;100.00;101698.00;5041571;28;45832;-86
2023/01/27 00:29:09;;;;;;;;;6.00;4.00;;;;;8.01;100.00;101698.88;5038184;28;45371;-85
2023/01/27 00:34:19;;;;;;;;;3.00;3.00;;;;;7.94;100.00;101690.66;5025391;28;45511;-86
2023/01/27 00:36:44;;;;;;;;;4.33;3.00;;;;;7.99;100.00;101702.31;5008459;28;48081;-85
2023/01/27 00:39:11;;;;;;;;;5.00;5.00;;;;;8.08;100.00;101700.06;5025073;28;45352;-85
2023/01/27 00:41:38;;;;;;;;;4.00;3.00;;;;;7.94;100.00;101678.31;5027323;28;45367;-86
2023/01/27 00:44:04;;;;;;;;;3.00;3.00;;;;;8.02;100.00;101678.63;5025467;28;45230;-86
2023/01/27 00:46:31;;;;;;;;;5.33;2.00;;;;;8.03;100.00;101688.34;5025318;28;45770;-86
2023/01/27 00:48:56;;;;;;;;;3.00;3.00;;;;;8.01;100.00;101676.81;5008157;28;45691;-87
2023/01/27 00:51:22;;;;;;;;;3.00;3.00;;;;;8.04;100.00;101676.00;5007799;28;45470;-86
2023/01/27 00:53:48;;;;;;;;;1.00;1.00;;;;;8.14;100.00;101686.13;5026523;28;45401;-86
2023/01/27 00:56:14;;;;;;;;;6.67;5.33;;;;;8.04;100.00;101669.00;5008188;28;47137;-86
2023/01/27 00:58:39;;;;;;;;;5.33;3.67;;;;;8.00;100.00;101677.66;5026843;28;45307;-86
2023/01/27 01:01:09;;;;;;;;;4.33;2.67;;;;;8.13;100.00;101687.88;5007876;28;45739;-85
2023/01/27 01:03:35;;;;;;;;;8.33;6.33;;;;;8.11;100.00;101689.56;5008140;28;45417;-86
2023/01/27 01:06:07;;;;;;;;;3.00;3.00;;;;;8.21;100.00;101686.44;5007271;28;47280;-86
2023/01/27 01:08:34;;;;;;;;;2.67;2.00;;;;;8.07;100.00;101671.75;5007746;28;46003;-86
2023/01/27 01:11:00;;;;;;;;;5.33;3.00;;;;;8.05;100.00;101676.06;5025786;28;45421;-86
2023/01/27 01:13:27;;;;;;;;;3.67;3.67;;;;;8.08;100.00;101667.34;5027684;28;45395;-86
2023/01/27 01:15:54;;;;;;;;;2.00;2.00;;;;;8.12;100.00;101672.84;5008907;28;47760;-85
2023/01/27 01:18:20;;;;;;;;;4.33;4.33;;;;;8.12;100.00;101683.44;5007986;28;45407;-85
2023/01/27 01:20:46;;;;;;;;;2.67;1.33;;;;;8.07;100.00;101677.03;5009567;28;45388;-86
2023/01/27 01:23:13;;;;;;;;;2.00;2.00;;;;;8.10;100.00;101674.53;5027215;28;45386;-86
2023/01/27 01:25:38;;;;;;;;;5.33;2.00;;;;;8.12;100.00;101677.22;5008245;28;47638;-86
2023/01/27 01:28:06;;;;;;;;;4.00;4.00;;;;;8.16;100.00;101677.41;5025381;28;45402;-86
2023/01/27 01:30:34;;;;;;;;;4.00;4.00;;;;;8.16;100.00;101665.88;5007852;28;45708;-85
2023/01/27 01:32:59;;;;;;;;;2.00;2.00;;;;;8.11;100.00;101676.31;5025257;28;45160;-86
2023/01/27 01:35:26;;;;;;;;;4.33;3.00;;;;;8.16;100.00;101660.59;5005602;28;47259;-86
2023/01/27 01:37:52;;;;;;;;;4.00;2.67;;;;;8.18;100.00;101673.06;5006833;28;45293;-86
2023/01/27 01:40:19;;;;;;;;;3.00;3.00;;;;;8.16;100.00;101657.94;5007305;28;45430;-86
2023/01/27 01:43:05;;;;;;;;;4.00;4.00;;;;;8.29;100.00;101669.94;5024182;28;45464;-85
2023/01/27 01:45:31;;;;;;;;;4.50;3.00;;;;;8.17;100.00;101665.94;5000156;28;47199;-86
2023/01/27 01:48:25;;;;;;;;;3.67;3.00;;;;;8.21;100.00;101659.94;5006094;28;45684;-86
2023/01/27 01:51:03;;;;;;;;;5.67;5.67;;;;;8.21;100.00;101659.03;5001878;28;45518;-86
2023/01/27 01:53:35;;;;;;;;;2.00;2.00;;;;;8.28;100.00;101670.75;5007856;28;45386;-86
2023/01/27 01:56:09;;;;;;;;;1.00;1.00;;;;;8.25;100.00;101668.91;5006327;28;47447;-85
2023/01/27 01:58:35;;;;;;;;;2.00;2.00;;;;;8.15;100.00;101662.34;5006476;28;46105;-86
2023/01/27 02:01:04;;;;;;;;;3.33;3.00;;;;;8.24;100.00;101669.75;5023913;28;45418;-85
2023/01/27 02:03:32;;;;;;;;;2.67;2.67;;;;;8.23;100.00;101662.63;5006280;28;45404;-86
2023/01/27 02:05:57;;;;;;;;;4.00;3.00;;;;;8.12;100.00;101661.31;5008502;28;48357;-85
2023/01/27 02:08:36;;;;;;;;;2.67;2.33;;;;;8.27;100.00;101668.97;5006835;28;45438;-85
2023/01/27 02:11:02;;;;;;;;;2.67;2.67;;;;;8.12;100.00;101653.38;5026522;28;45442;-85
2023/01/27 02:13:27;;;;;;;;;3.00;3.00;;;;;8.09;100.00;101658.56;5007686;28;45270;-85
2023/01/27 02:15:54;;;;;;;;;2.00;2.00;;;;;8.11;100.00;101655.13;5007330;28;46711;-85
2023/01/27 02:18:21;;;;;;;;;4.67;2.00;;;;;8.14;100.00;101657.91;5028168;28;45279;-85
2023/01/27 02:20:52;;;;;;;;;1.67;1.67;;;;;8.10;100.00;101650.69;5007986;28;44779;-86
2023/01/27 02:23:40;;;;;;;;;2.00;2.00;;;;;8.18;100.00;101659.81;5008152;28;45368;-85
2023/01/27 02:26:29;;;;;;;;;2.00;2.00;;;;;8.29;100.00;101654.03;5008438;28;47202;-86
2023/01/27 02:29:01;;;;;;;;;2.33;1.00;;;;;8.21;100.00;101651.09;5007362;28;46091;-85
2023/01/27 02:31:27;;;;;;;;;3.67;3.67;;;;;8.12;100.00;101643.69;5005841;28;45462;-85
2023/01/27 02:33:58;;;;;;;;;4.00;1.00;;;;;8.17;100.00;101642.09;5008427;28;44776;-85
2023/01/27 02:36:25;;;;;;;;;1.00;1.00;;;;;8.16;100.00;101640.31;5025069;28;45408;-86
2023/01/27 02:39:01;;;;;;;;;3.00;3.00;;;;;8.19;100.00;101644.81;5021555;28;45448;-87
2023/01/27 02:41:45;;;;;;;;;2.00;1.00;;;;;8.25;100.00;101646.81;5006460;28;45355;-86
2023/01/27 02:44:11;;;;;;;;;2.00;2.00;;;;;8.07;100.00;101629.34;5024594;28;45391;-86
2023/01/27 02:46:37;;;;;;;;;6.00;1.67;;;;;8.02;100.00;101623.00;5023119;28;46183;-87
2023/01/27 02:49:03;;;;;;;;;2.33;2.33;;;;;8.19;100.00;101640.41;5002699;28;45684;-87
2023/01/27 02:51:28;;;;;;;;;1.67;1.67;;;;;8.19;100.00;101642.16;5003144;28;45363;-84
2023/01/27 02:53:54;;;;;;;;;1.00;1.00;;;;;8.09;100.00;101625.00;5020701;28;45497;-86
2023/01/27 02:56:19;;;;;;;;;3.00;2.00;;;;;8.16;100.00;101644.69;5005783;28;46886;-86
2023/01/27 02:58:46;;;;;;;;;7.67;3.00;;;;;8.21;100.00;101630.78;5002662;28;46059;-85
2023/01/27 03:01:12;;;;;;;;;2.00;2.00;;;;;8.10;100.00;101637.44;5021567;28;45352;-86
2023/01/27 03:03:42;;;;;;;;;2.00;1.00;;;;;8.11;100.00;101633.91;5024314;28;45363;-87
2023/01/27 03:06:09;;;;;;;;;1.00;1.00;;;;;8.09;100.00;101637.38;5003688;28;47368;-86
2023/01/27 03:08:34;;;;;;;;;4.33;2.33;;;;;8.05;100.00;101636.34;5023643;28;45394;-86
2023/01/27 03:11:00;;;;;;;;;8.00;3.00;;;;;8.10;100.00;101645.38;5002880;28;45511;-86
2023/01/27 03:13:26;;;;;;;;;2.67;2.67;;;;;8.07;100.00;101625.81;5024567;28;45405;-85
2023/01/27 03:18:36;;;;;;;;;0.67;0.67;;;;;8.18;100.00;101635.06;5018123;28;45456;-86
2023/01/27 03:21:36;;;;;;;;;5.67;5.00;;;;;8.38;100.00;101630.50;5020290;28;45371;-86
2023/01/27 03:24:01;;;;;;;;;6.00;4.33;;;;;8.23;100.00;101624.66;5002680;28;45415;-86
2023/01/27 03:26:27;;;;;;;;;4.33;2.00;;;;;8.23;100.00;101619.34;5001064;28;46619;-86
2023/01/27 03:29:53;;;;;;;;;6.00;4.33;;;;;8.20;100.00;101623.69;5020209;28;45594;-86
2023/01/27 03:31:38;;;;;;;;;2.00;2.00;;;;;8.21;100.00;101636.06;5016878;28;45403;-86
2023/01/27 03:34:03;;;;;;;;;1.67;1.67;;;;;8.18;100.00;101624.44;5002894;28;45506;-86
2023/01/27 03:47:25;;;;;;;;;3.67;3.67;;;;;8.21;100.00;101611.34;5024217;28;45818;-85
2023/01/27 03:49:51;;;;;;;;;3.00;2.00;;;;;8.21;100.00;101616.63;5025286;28;45358;-84
2023/01/27 03:52:16;;;;;;;;;7.33;5.00;;;;;8.24;100.00;101621.13;5025869;28;45304;-87
2023/01/27 03:54:41;;;;;;;;;6.33;4.33;;;;;8.20;100.00;101615.75;5026778;28;45378;-85
2023/01/27 03:57:07;;;;;;;;;3.33;3.33;;;;;8.20;100.00;101621.03;5002766;28;46873;-86
2023/01/27 03:59:33;;;;;;;;;4.33;4.33;;;;;8.18;100.00;101619.16;5001767;28;45568;-84
2023/01/27 04:07:27;;;;;;;;;5.33;3.67;;;;;8.10;100.00;101613.59;5016600;28;45876;-86
2023/01/27 04:09:53;;;;;;;;;2.33;2.33;;;;;8.07;100.00;101613.47;5025028;28;45420;-86
2023/01/27 04:12:18;;;;;;;;;2.00;2.00;;;;;8.13;100.00;101605.75;5027200;28;45459;-86
2023/01/27 04:14:44;;;;;;;;;2.00;2.00;;;;;8.10;100.00;101603.00;5047065;28;45315;-86
2023/01/27 04:17:15;;;;;;;;;6.00;3.33;;;;;8.21;100.00;101614.88;5028255;28;47497;-86
2023/01/27 04:19:41;;;;;;;;;2.67;2.00;;;;;8.15;100.00;101617.28;5045589;28;45664;-86
2023/01/27 04:22:14;;;;;;;;;4.33;4.33;;;;;8.28;100.00;101623.06;5045340;28;45442;-86
2023/01/27 04:24:40;;;;;;;;;2.33;2.33;;;;;8.14;100.00;101609.28;5026690;28;45745;-86
2023/01/27 04:27:08;;;;;;;;;2.00;2.00;;;;;8.28;100.00;101617.75;5027023;28;47738;-86
2023/01/27 04:29:36;;;;;;;;;3.00;3.00;;;;;8.30;100.00;101616.06;5027456;28;45500;-86
2023/01/27 04:32:04;;;;;;;;;3.67;2.00;;;;;8.21;100.00;101606.03;5045018;28;45359;-83
2023/01/27 04:34:31;;;;;;;;;4.33;3.00;;;;;8.17;100.00;101602.34;5024922;28;45620;-85
2023/01/27 04:36:57;;;;;;;;;3.00;3.00;;;;;8.24;100.00;101613.19;5011228;28;47052;-85
2023/01/27 04:39:23;;;;;;;;;2.00;2.00;;;;;8.22;100.00;101607.84;5010620;28;46521;-86
2023/01/27 04:41:50;;;;;;;;;1.33;1.33;;;;;8.23;100.00;101603.44;5010671;28;45587;-86
2023/01/27 04:44:19;;;;;;;;;4.00;2.00;;;;;8.15;100.00;101614.66;5012145;28;45490;-85
2023/01/27 04:46:44;;;;;;;;;1.00;1.00;;;;;8.12;100.00;101601.31;5028883;28;46158;-85
2023/01/27 04:49:10;;;;;;;;;4.33;3.00;;;;;8.02;100.00;101592.09;5026688;28;45557;-85
2023/01/27 04:51:35;;;;;;;;;3.00;3.00;;;;;8.09;100.00;101594.97;5027281;28;45345;-85
2023/01/27 04:54:02;;;;;;;;;1.33;1.33;;;;;8.08;100.00;101591.44;5008630;28;45617;-85
2023/01/27 04:56:37;;;;;;;;;3.00;3.00;;;;;8.21;100.00;101595.44;5007853;28;48399;-85
2023/01/27 04:59:09;;;;;;;;;2.00;2.00;;;;;8.19;100.00;101595.38;5025649;28;45645;-86
2023/01/27 05:01:34;;;;;;;;;4.00;2.00;;;;;8.07;100.00;101592.25;5007629;28;45476;-85
2023/01/27 05:04:00;;;;;;;;;5.67;2.00;;;;;8.15;100.00;101598.75;5026231;28;45377;-85
2023/01/27 05:06:26;;;;;;;;;2.00;2.00;;;;;8.20;100.00;101597.19;5008485;28;48050;-85
2023/01/27 05:08:52;;;;;;;;;3.33;2.00;;;;;8.19;100.00;101605.06;5014264;28;46107;-85
2023/01/27 05:11:19;;;;;;;;;4.67;2.67;;;;;8.24;100.00;101592.00;5028620;28;45406;-85
2023/01/27 05:13:45;;;;;;;;;1.00;1.00;;;;;8.15;100.00;101585.50;5029312;28;45718;-85
2023/01/27 05:16:12;;;;;;;;;3.00;1.00;;;;;8.31;100.00;101591.38;5027028;28;47638;-85
2023/01/27 05:18:39;;;;;;;;;2.00;1.00;;;;;8.28;100.00;101586.88;5027300;28;45933;-85
2023/01/27 05:21:06;;;;;;;;;2.00;2.00;;;;;8.30;100.00;101590.50;5027998;28;45637;-85
2023/01/27 05:23:34;;;;;;;;;3.33;2.67;;;;;8.19;100.00;101568.88;5046731;28;45457;-85
2023/01/27 05:26:05;;;;;;;;;2.00;2.00;;;;;8.25;100.00;101577.91;5045960;28;46477;-85
2023/01/27 05:28:31;;;;;;;;;3.67;1.00;;;;;8.19;100.00;101587.41;5025632;28;45543;-86
2023/01/27 05:31:20;;;;;;;;;3.67;3.00;;;;;8.35;100.00;101599.50;5044073;28;45385;-85
2023/01/27 05:33:48;;;;;;;;;2.33;2.33;;;;;8.32;100.00;101599.41;5025304;28;45612;-86
2023/01/27 05:36:15;;;;;;;;;3.33;2.00;;;;;8.30;100.00;101594.88;5045450;28;45687;-86
2023/01/27 05:38:41;;;;;;;;;5.00;5.00;;;;;8.21;100.00;101591.03;5045889;28;45281;-85
2023/01/27 05:41:09;;;;;;;;;3.00;2.00;;;;;8.25;100.00;101588.50;5045415;28;45284;-85
2023/01/27 05:43:36;;;;;;;;;2.33;2.33;;;;;8.26;100.00;101592.94;5027384;28;45463;-85
2023/01/27 05:46:13;;;;;;;;;3.00;2.00;;;;;8.29;100.00;101587.78;5046601;28;45529;-85
2023/01/27 05:48:44;;;;;;;;;2.67;2.67;;;;;8.30;100.00;101589.56;5045964;28;45388;-85
2023/01/27 05:51:11;;;;;;;;;3.33;3.00;;;;;8.20;100.00;101581.28;5027111;28;45522;-84
2023/01/27 05:53:38;;;;;;;;;0.00;0.00;;;;;8.28;100.00;101591.25;5028013;28;45471;-84
2023/01/27 05:56:04;;;;;;;;;2.00;2.00;;;;;8.26;100.00;101598.25;5028786;28;47490;-84
2023/01/27 05:58:31;;;;;;;;;2.00;2.00;;;;;8.28;100.00;101599.22;5046586;28;45550;-85
2023/01/27 06:01:09;;;;;;;;;4.33;2.33;;;;;8.25;100.00;101602.66;5047751;28;45276;-85
2023/01/27 06:03:35;;;;;;;;;3.00;3.00;;;;;8.16;100.00;101594.34;5047822;28;45307;-85
2023/01/27 06:06:01;;;;;;;;;2.00;2.00;;;;;8.15;100.00;101597.84;5028853;28;48166;-85
2023/01/27 06:08:26;;;;;;;;;3.00;3.00;;;;;8.15;100.00;101596.09;5045275;28;45394;-85
2023/01/27 06:10:52;;;;;;;;;2.00;2.00;;;;;8.17;100.00;101601.47;5045274;28;45450;-85
2023/01/27 06:13:21;;;;;;;;;3.33;1.00;;;;;8.22;100.00;101602.56;5029642;28;45348;-85
2023/01/27 06:15:46;;;;;;;;;1.33;1.33;;;;;8.16;100.00;101603.22;5026092;28;48118;-85
2023/01/27 06:18:13;;;;;;;;;2.67;2.67;;;;;8.12;100.00;101592.44;5027811;28;45243;-85
2023/01/27 06:20:39;;;;;;;;;6.67;3.00;;;;;8.17;100.00;101599.72;5028229;28;45433;-84
2023/01/27 06:23:06;;;;;;;;;1.33;1.33;;;;;8.16;100.00;101600.56;5047666;28;45370;-85
2023/01/27 06:25:38;;;;;;;;;3.00;3.00;;;;;8.14;100.00;101596.97;5027183;28;48200;-86
2023/01/27 06:28:04;;;;;;;;;4.67;3.67;;;;;8.06;100.00;101601.06;5047859;28;45402;-84
2023/01/27 06:30:30;;;;;;;;;3.00;3.00;;;;;8.11;100.00;101615.38;5025001;28;45882;-84
2023/01/27 06:32:56;;;;;;;;;1.00;1.00;;;;;8.20;100.00;101614.81;5027141;28;45739;-84
2023/01/27 06:35:22;;;;;;;;;2.00;2.00;;;;;8.06;100.00;101595.78;5047299;28;45404;-84
2023/01/27 06:37:48;;;;;;;;;2.67;2.67;;;;;8.20;100.00;101612.16;5029691;28;45439;-84
2023/01/27 06:40:14;;;;;;;;;3.00;3.00;;;;;8.21;100.00;101611.34;5029307;28;45436;-85
2023/01/27 06:42:42;;;;;;;;;5.00;3.33;;;;;8.30;100.00;101616.06;5029795;28;45484;-85
2023/01/27 06:45:08;;;;;;;;;2.00;2.00;;;;;8.24;100.00;101615.84;5047012;28;45375;-85
2023/01/27 06:47:34;;;;;;;;;2.67;2.67;;;;;8.23;100.00;101617.59;5047332;28;45466;-85
2023/01/27 06:49:59;;;;;;;;;2.33;2.33;;;;;8.22;100.00;101615.81;5027297;28;45496;-84
2023/01/27 06:52:24;;;;;;;;;2.67;2.67;;;;;8.21;100.00;101630.78;5029890;28;45415;-85
2023/01/27 06:54:50;;;;;;;;;3.00;3.00;;;;;8.12;100.00;101601.31;5029242;28;48492;-85
2023/01/27 06:57:15;;;;;;;;;2.00;2.00;;;;;8.08;100.00;101601.09;5044946;28;45382;-85
2023/01/27 06:59:40;;;;;;;;;4.67;4.33;;;;;8.19;100.00;101619.22;5028945;28;45395;-84
2023/01/27 07:02:07;;;;;;;;;3.00;3.00;;;;;8.02;100.00;101589.44;5045930;28;45514;-85
2023/01/27 07:04:32;;;;;;;;;7.00;4.33;;;;;8.15;100.00;101629.66;5026750;28;47199;-85
2023/01/27 07:06:58;;;;;;;;;4.33;4.33;;;;;8.14;100.00;101619.88;5027756;28;45379;-84
2023/01/27 07:09:23;;;;;;;;;3.00;2.00;;;;;8.07;100.00;101621.41;5009867;28;45426;-84
2023/01/27 07:11:48;;;;;;;;;3.00;3.00;;;;;8.06;100.00;101619.63;5028360;28;45529;-84
2023/01/27 07:14:17;;;;;;;;;6.00;5.67;;;;;8.04;100.00;101616.00;5028751;28;47135;-86
2023/01/27 07:16:42;;;;;;;;;3.00;2.67;;;;;8.04;100.00;101623.03;5029320;28;45264;-85
2023/01/27 07:19:08;;;;;;;;;5.00;4.67;;;;;8.00;100.00;101614.97;5029825;28;45996;-85
2023/01/27 07:21:33;;;;;;;;;5.00;5.00;;;;;8.08;100.00;101641.78;5027550;28;45442;-86
2023/01/27 07:23:58;;;;;;;;;6.33;4.33;;;;;8.07;100.00;101637.31;5007773;28;46883;-84
2023/01/27 07:26:24;;;;;;;;;5.00;5.00;;;;;8.09;100.00;101638.25;5024708;28;45471;-85
2023/01/27 07:28:52;;;;;;;;;5.00;3.00;;;;;8.08;100.00;101631.19;5008433;28;45508;-86
2023/01/27 07:31:17;;;;;;;;;4.67;3.67;;;;;8.06;100.00;101648.75;5028871;28;45357;-87
2023/01/27 07:33:43;;;;;;;;;5.00;5.00;;;;;8.05;100.00;101646.03;5008138;28;48190;-86
2023/01/27 07:36:08;;;;;;;;;8.00;6.00;;;;;8.01;100.00;101645.00;5011315;28;45313;-86
2023/01/27 07:38:34;;;;;;;;;5.00;3.00;;;;;7.97;100.00;101640.44;5009909;28;45259;-86
2023/01/27 07:41:04;;;;;;;;;5.00;5.00;;;;;7.95;100.00;101618.28;5009538;28;45368;-86
2023/01/27 07:43:29;;;;;;;;;5.67;5.67;;;;;8.01;100.00;101652.97;5011691;28;47037;-86
2023/01/27 07:45:56;;;;;;;;;5.33;5.33;;;;;7.97;100.00;101651.03;5013908;28;45458;-86
2023/01/27 07:48:22;;;;;;;;;5.00;5.00;;;;;8.05;100.00;101668.13;5023658;28;45307;-86
2023/01/27 07:50:47;;;;;;;;;6.00;5.00;;;;;8.04;100.00;101663.69;5032345;28;45446;-86
2023/01/27 07:53:14;;;;;;;;;6.67;5.67;;;;;8.13;100.00;101657.84;5033695;28;47378;-85
2023/01/27 07:55:40;;;;;;;;;7.33;7.33;;;;;8.05;100.00;101660.19;5033261;28;45333;-85
2023/01/27 07:58:06;;;;;;;;;5.67;5.00;;;;;8.14;100.00;101665.84;5034115;28;45408;-86
2023/01/27 08:00:34;;;;;;;;;5.00;3.00;;;;;8.10;100.00;101663.94;5033675;28;45334;-85
2023/01/27 08:03:10;;;;;;;;;4.33;4.33;;;;;8.12;100.00;101662.25;5039031;28;47007;-85
2023/01/27 08:05:37;;;;;;;;;3.67;3.67;;;;;8.00;100.00;101657.34;5034966;28;45375;-85
2023/01/27 08:08:03;;;;;;;;;8.00;5.33;;;;;7.99;100.00;101644.03;5033067;28;45399;-85
2023/01/27 08:10:29;;;;;;;;;11.00;10.00;;;;;8.10;100.00;101669.22;5033528;28;45477;-86
2023/01/27 08:12:54;;;;;;;;;3.00;1.67;;;;;8.05;100.00;101665.47;5015784;28;48138;-85
2023/01/27 08:15:21;;;;;;;;;8.67;7.00;;;;;8.08;100.00;101667.34;5011575;28;45324;-87
2023/01/27 08:17:57;;;;;;;;;7.67;6.33;;;;;8.26;100.00;101680.41;5030335;28;45357;-87
2023/01/27 08:20:24;;;;;;;;;3.00;2.33;;;;;8.20;100.00;101675.75;5013697;28;47155;-86
2023/01/27 08:22:52;;;;;;;;;7.33;5.33;;;;;8.16;100.00;101677.41;5022468;28;46838;-85
2023/01/27 08:28:41;;;;;;;;;9.00;5.00;;;;;8.23;100.00;101680.31;5057231;28;45433;-85
2023/01/27 08:31:15;;;;;;;;;6.00;3.00;;;;;8.20;100.00;101674.03;5042377;28;45462;-85
2023/01/27 08:33:48;;;;;;;;;5.00;5.00;;;;;8.15;100.00;101669.41;5052624;28;46343;-85
2023/01/27 08:36:16;;;;;;;;;5.67;5.67;;;;;8.23;100.00;101685.59;5029830;28;45780;-85
2023/01/27 08:38:50;;;;;;;;;5.33;5.33;;;;;8.15;100.00;101672.94;5035784;28;44988;-86
2023/01/27 08:41:22;;;;;;;;;9.33;7.33;;;;;8.27;100.00;101684.88;5003183;28;45674;-85
2023/01/27 08:43:48;;;;;;;;;10.33;7.00;;;;;8.11;100.00;101664.81;5025807;28;47843;-84
2023/01/27 08:46:14;;;;;;;;;8.00;7.00;;;;;8.06;100.00;101654.06;5053392;28;45539;-84
2023/01/27 08:48:40;;;;;;;;;7.00;6.67;;;;;8.01;100.00;101643.25;5036173;28;45859;-84
2023/01/27 08:51:07;;;;;;;;;5.67;5.67;;;;;8.04;100.00;101647.78;5035060;28;45382;-84
2023/01/27 08:53:35;;;;;;;;;7.67;7.67;;;;;8.16;100.00;101661.50;5033970;28;47338;-85
2023/01/27 08:56:30;;;;;;;;;6.67;6.67;;;;;8.28;100.00;101692.88;5033729;28;45356;-84
2023/01/27 08:59:00;;;;;;;;;3.00;3.00;;;;;7.95;100.00;101655.38;5019690;28;45306;-87
2023/01/27 09:01:25;;;;;;;;;6.33;6.00;;;;;7.81;100.00;101647.75;5034750;28;45409;-86
2023/01/27 09:07:19;;;;;;;;;7.67;6.67;;;;;8.24;100.00;101706.88;5043162;28;45211;-85
2023/01/27 09:09:48;;;;;;;;;8.33;7.00;;;;;7.90;100.00;101670.19;5014122;28;45399;-86
2023/01/27 09:12:15;;;;;;;;;9.33;7.00;;;;;8.06;100.00;101690.22;5014261;28;45528;-84
2023/01/27 09:14:40;;;;;;;;;10.00;9.67;;;;;8.10;100.00;101714.28;5031074;28;46304;-84
2023/01/27 09:17:06;;;;;;;;;10.00;6.00;;;;;8.03;100.00;101712.19;5032541;28;45422;-85
2023/01/27 09:22:57;;;;;;;;;10.67;9.33;;;;;8.15;100.00;101715.34;5051475;28;45263;-85
2023/01/27 09:25:22;;;;;;;;;7.00;5.67;;;;;7.84;100.00;101672.56;4998097;28;46917;-83
2023/01/27 09:27:53;;;;;;;;;13.33;10.67;;;;;7.92;100.00;101693.25;5030277;28;45393;-85
2023/01/27 09:30:30;;;;;;;;;7.33;6.33;;;;;7.93;100.00;101684.44;5013355;28;45690;-86
2023/01/27 09:33:07;;;;;;;;;11.00;6.00;;;;;7.94;100.00;101706.56;5032324;28;45390;-85
2023/01/27 09:35:59;;;;;;;;;10.00;7.00;;;;;8.10;100.00;101700.09;5033942;28;47946;-86
2023/01/27 09:38:27;;;;;;;;;15.67;11.67;;;;;7.84;100.00;101656.69;5032457;28;44746;-85
2023/01/27 09:41:13;;;;;;;;;9.67;8.67;;;;;8.30;100.00;101703.53;5016116;28;44929;-84
2023/01/27 09:43:57;;;;;;;;;2.00;2.00;;;;;8.17;100.00;101718.94;5028728;28;45604;-85
2023/01/27 09:46:37;;;;;;;;;2.33;2.33;;;;;8.30;100.00;101716.78;5014693;28;48413;-85
2023/01/27 09:49:32;;;;;;;;;12.00;10.33;;;;;8.35;100.00;101715.22;5036249;28;45739;-84
2023/01/27 09:52:12;;;;;;;;;8.33;8.00;;;;;8.31;100.00;101726.53;5036612;28;45123;-84
2023/01/27 09:54:47;;;;;;;;;7.00;5.00;;;;;8.30;100.00;101723.00;5020303;28;45004;-85
2023/01/27 09:57:39;;;;;;;;;6.33;6.33;;;;;8.21;100.00;101720.88;5032430;28;45383;-84
2023/01/27 10:00:31;;;;;;;;;8.00;7.00;;;;;8.03;100.00;101698.97;5019988;28;45242;-86
2023/01/27 10:03:32;;;;;;;;;10.00;7.00;;;;;8.23;100.00;101730.66;5019148;28;45434;-85
2023/01/27 10:06:52;;;;;;;;;12.00;7.00;;;;;8.18;100.00;101728.72;5012465;28;45491;-86
2023/01/27 10:10:05;;;;;;;;;8.33;6.00;;;;;8.20;100.00;101720.81;5031008;28;45184;-85
2023/01/27 10:12:56;;;;;;;;;4.67;4.33;;;;;8.18;100.00;101727.78;5034821;28;45612;-84
2023/01/27 10:15:57;;;;;;;;;8.67;7.33;;;;;8.22;100.00;101735.06;5055588;28;45258;-85
2023/01/27 10:18:42;;;;;;;;;6.00;5.00;;;;;8.21;100.00;101736.78;5041617;28;45506;-85
2023/01/27 10:21:35;;;;;;;;;7.00;6.00;;;;;8.14;100.00;101742.69;5035753;28;47073;-85
2023/01/27 10:24:17;;;;;;;;;8.33;7.00;;;;;8.18;100.00;101738.38;5031375;28;45850;-83
2023/01/27 10:26:48;;;;;;;;;2.67;2.33;;;;;8.22;100.00;101740.34;5050398;28;45480;-85
2023/01/27 10:29:24;;;;;;;;;7.33;7.00;;;;;8.18;100.00;101747.28;5031391;28;44837;-84
2023/01/27 10:32:16;;;;;;;;;12.00;11.00;;;;;8.32;100.00;101739.88;5033753;28;46918;-84
2023/01/27 10:45:08;;;;;;;;;10.33;10.33;;;;;8.08;100.00;101737.16;5038702;28;44940;-85
2023/01/27 10:47:46;;;;;;;;;5.00;5.00;;;;;8.20;100.00;101748.22;5032748;28;45500;-83
2023/01/27 10:50:21;;;;;;;;;6.00;6.00;;;;;8.12;100.00;101754.03;5032033;28;45481;-84
2023/01/27 10:53:04;;;;;;;;;6.67;6.00;;;;;8.08;100.00;101746.81;5033266;28;45386;-83
2023/01/27 10:55:43;;;;;;;;;10.33;6.00;;;;;8.07;100.00;101755.63;5040102;28;45525;-84
2023/01/27 10:58:19;;;;;;;;;10.67;7.67;;;;;7.99;100.00;101747.34;5015076;28;45216;-84
2023/01/27 11:00:51;;;;;;;;;7.00;7.00;;;;;7.94;100.00;101743.63;5014403;28;45309;-85
2023/01/27 11:03:23;;;;;;;;;11.33;7.67;;;;;7.93;100.00;101750.66;5012354;28;45414;-83
2023/01/27 11:05:56;;;;;;;;;11.00;10.67;;;;;8.01;100.00;101753.63;5012067;28;47618;-84
2023/01/27 11:08:35;;;;;;;;;6.67;6.00;;;;;8.12;100.00;101732.84;5029188;28;44735;-85
2023/01/27 11:14:01;;;;;;;;;8.67;6.33;;;;;8.11;100.00;101761.09;5028616;28;44706;-86
2023/01/27 11:16:36;;;;;;;;;9.33;7.00;;;;;8.01;100.00;101753.63;5029979;28;45380;-85
2023/01/27 11:19:18;;;;;;;;;5.33;5.00;;;;;7.87;100.00;101736.25;5012004;28;45403;-87
2023/01/27 11:21:50;;;;;;;;;9.67;8.33;;;;;7.82;100.00;101739.63;5012619;28;45341;-86
2023/01/27 11:24:37;;;;;;;;;10.00;8.33;;;;;7.85;100.00;101744.13;5011857;28;45935;-85
2023/01/27 11:27:15;;;;;;;;;12.00;9.67;;;;;7.86;100.00;101740.66;5011131;28;47363;-86
2023/01/27 11:29:52;;;;;;;;;6.00;3.00;;;;;7.89;100.00;101730.19;5009337;28;46179;-86
2023/01/27 11:32:25;;;;;;;;;8.67;7.67;;;;;7.97;100.00;101733.16;5012788;28;44761;-86
2023/01/27 11:34:53;;;;;;;;;10.00;6.67;;;;;8.08;100.00;101721.25;5015231;28;45946;-86
2023/01/27 11:37:28;;;;;;;;;11.00;7.33;;;;;7.99;100.00;101723.50;5011861;28;48734;-84
2023/01/27 11:39:56;;;;;;;;;5.00;3.00;;;;;7.87;100.00;101705.38;5014910;28;45511;-85
2023/01/27 11:42:32;;;;;;;;;9.00;9.00;;;;;8.06;100.00;101728.22;5013525;28;45614;-85
2023/01/27 11:44:59;;;;;;;;;9.67;9.00;;;;;7.80;100.00;101696.28;5029298;28;45264;-84
2023/01/27 11:47:36;;;;;;;;;7.67;6.67;;;;;8.16;100.00;101718.88;5031736;28;45238;-84
2023/01/27 11:50:04;;;;;;;;;12.00;11.00;;;;;8.06;100.00;101707.03;5013554;28;45264;-86
2023/01/27 11:52:30;;;;;;;;;12.67;9.33;;;;;8.08;100.00;101709.72;5013096;28;44862;-85
2023/01/27 11:55:04;;;;;;;;;15.67;11.00;;;;;8.15;100.00;101715.34;5032292;28;45437;-83
2023/01/27 11:57:30;;;;;;;;;11.00;11.00;;;;;8.01;100.00;101713.88;5009049;28;48582;-85
2023/01/27 12:00:02;;;;;;;;;11.33;11.33;;;;;8.15;100.00;101715.34;5008793;28;45392;-85
2023/01/27 12:02:30;;;;;;;;;11.00;9.67;;;;;8.08;100.00;101718.59;5010931;28;45355;-85
2023/01/27 12:05:13;;;;;;;;;9.67;9.00;;;;;8.15;100.00;101727.69;5035568;28;44766;-86
2023/01/27 12:07:59;;;;;;;;;10.00;8.00;;;;;7.96;100.00;101723.41;5013263;28;47130;-86
2023/01/27 12:10:42;;;;;;;;;11.67;11.67;;;;;8.07;100.00;101714.13;5227639;23;45422;-86
2023/01/27 12:13:19;;;;;;;;;14.00;14.00;;;;;8.10;100.00;101713.34;5161798;22;44811;-86
2023/01/27 12:15:53;;;;;;;;;20.33;15.00;;;;;8.04;100.00;101692.84;5009129;28;45186;-86
2023/01/27 12:18:24;;;;;;;;;10.00;10.00;;;;;8.14;100.00;101710.91;5009878;28;46388;-85
2023/01/27 12:21:04;;;;;;;;;14.67;11.67;;;;;8.08;100.00;101715.94;4981006;28;44727;-84
2023/01/27 12:23:39;;;;;;;;;15.00;12.33;;;;;7.93;100.00;101702.09;5017775;28;44834;-85
2023/01/27 12:26:10;;;;;;;;;17.00;11.00;;;;;7.98;100.00;101703.19;5016214;28;44726;-86
2023/01/27 12:28:41;;;;;;;;;14.67;14.00;;;;;7.91;100.00;101688.78;5012273;28;45366;-85
2023/01/27 12:31:23;;;;;;;;;9.33;9.33;;;;;7.93;100.00;101688.84;4961377;28;45395;-85
2023/01/27 12:33:59;;;;;;;;;10.67;9.00;;;;;7.96;100.00;101689.88;4988883;28;45300;-86